createdAt,value
2019-01-19T00:02:49.122Z,14.70
2019-01-19T00:05:41.545Z,16.53
2019-01-19T00:08:36.540Z,13.53
2019-01-19T00:11:29.925Z,14.63
2019-01-19T00:14:23.997Z,22.10
2019-01-19T00:17:35.359Z,16.37
2019-01-19T00:20:37.953Z,15.17
2019-01-19T00:23:45.533Z,16.60
2019-01-19T00:27:01.513Z,14.87
2019-01-19T00:30:05.932Z,18.00
2019-01-19T00:32:43.883Z,12.13
2019-01-19T00:35:48.255Z,13.93
2019-01-19T00:38:41.275Z,17.50
2019-01-19T00:41:40.544Z,14.57
2019-01-19T00:44:31.821Z,28.77
2019-01-19T00:47:17.282Z,18.43
2019-01-19T00:49:58.223Z,15.03
2019-01-19T00:52:52.836Z,14.00
2019-01-19T00:55:44.845Z,20.80
2019-01-19T00:58:41.173Z,20.60
2019-01-19T01:01:48.371Z,18.40
2019-01-19T01:05:02.249Z,19.93
2019-01-19T01:07:58.118Z,17.63
2019-01-19T01:10:50.405Z,17.57
2019-01-19T01:13:37.910Z,20.90
2019-01-19T01:16:37.618Z,14.17
2019-01-19T01:19:44.865Z,19.27
2019-01-19T01:22:48.144Z,22.73
2019-01-19T01:25:43.039Z,26.20
2019-01-19T01:28:45.044Z,24.33
2019-01-19T01:32:09.655Z,22.40
2019-01-19T01:35:24.569Z,28.23
2019-01-19T01:38:46.906Z,20.30
2019-01-19T01:41:37.542Z,21.33
2019-01-19T01:44:28.207Z,18.17
2019-01-19T01:47:33.882Z,19.07
2019-01-19T01:50:26.085Z,21.27
2019-01-19T01:53:35.511Z,18.20
2019-01-19T01:56:10.011Z,18.30
2019-01-19T01:58:56.279Z,20.97
2019-01-19T02:01:32.097Z,19.67
2019-01-19T02:04:51.165Z,17.30
2019-01-19T02:07:42.709Z,18.80
2019-01-19T02:10:47.919Z,18.47
2019-01-19T02:13:54.454Z,23.20
2019-01-19T02:16:56.995Z,24.10
2019-01-19T02:19:53.752Z,24.33
2019-01-19T02:23:10.736Z,18.33
2019-01-19T02:26:16.592Z,14.77
2019-01-19T02:29:31.746Z,17.83
2019-01-19T02:32:39.431Z,15.43
2019-01-19T02:36:07.329Z,14.57
2019-01-19T02:39:38.299Z,15.53
2019-01-19T02:42:32.944Z,13.37
2019-01-19T02:45:44.330Z,14.27
2019-01-19T02:48:36.643Z,15.90
2019-01-19T02:51:20.667Z,15.33
2019-01-19T02:54:37.553Z,13.73
2019-01-19T02:57:43.873Z,15.83
2019-01-19T03:00:36.295Z,15.27
2019-01-19T03:03:44.060Z,18.20
2019-01-19T03:06:29.598Z,16.10
2019-01-19T03:09:23.526Z,13.30
2019-01-19T03:12:23.048Z,14.50
2019-01-19T03:15:28.028Z,11.77
2019-01-19T03:18:33.224Z,11.73
2019-01-19T03:21:44.188Z,19.23
2019-01-19T03:24:38.199Z,13.57
2019-01-19T03:27:55.052Z,17.60
2019-01-19T03:30:55.253Z,14.17
2019-01-19T03:33:56.333Z,17.13
2019-01-19T03:36:52.075Z,13.77
2019-01-19T03:39:44.071Z,14.30
2019-01-19T03:42:52.597Z,20.17
2019-01-19T03:45:46.350Z,25.07
2019-01-19T03:48:29.591Z,13.53
2019-01-19T03:51:45.357Z,16.53
2019-01-19T03:54:30.464Z,13.00
2019-01-19T03:57:33.878Z,20.20
2019-01-19T04:00:46.413Z,14.60
2019-01-19T04:03:48.046Z,15.60
2019-01-19T04:06:56.494Z,16.97
2019-01-19T04:09:56.381Z,14.23
2019-01-19T04:13:12.281Z,19.43
2019-01-19T04:16:28.057Z,13.37
2019-01-19T04:19:20.858Z,14.53
2019-01-19T04:22:00.171Z,16.10
2019-01-19T04:24:39.325Z,15.17
2019-01-19T04:27:08.413Z,20.50
2019-01-19T04:29:37.437Z,21.80
2019-01-19T04:32:06.396Z,16.43
2019-01-19T04:34:35.438Z,17.23
2019-01-19T04:37:04.197Z,20.30
2019-01-19T04:39:33.245Z,19.77
2019-01-19T04:42:02.507Z,18.20
2019-01-19T04:44:31.561Z,22.73
2019-01-19T04:47:00.646Z,19.23
2019-01-19T04:49:29.660Z,19.40
2019-01-19T04:51:58.838Z,22.50
2019-01-19T04:54:27.673Z,19.50
2019-01-19T04:56:56.435Z,23.97
2019-01-19T04:59:25.293Z,21.10
2019-01-19T05:01:54.054Z,21.00
2019-01-19T05:04:23.113Z,22.63
2019-01-19T05:06:51.852Z,21.57
2019-01-19T05:09:20.882Z,23.10
2019-01-19T05:11:49.704Z,21.50
2019-01-19T05:14:18.513Z,25.10
2019-01-19T05:16:47.368Z,23.40
2019-01-19T05:19:16.142Z,26.57
2019-01-19T05:21:44.896Z,24.53
2019-01-19T05:24:13.667Z,25.23
2019-01-19T05:26:42.772Z,29.80
2019-01-19T05:29:11.611Z,20.40
2019-01-19T05:31:40.400Z,24.63
2019-01-19T05:34:09.567Z,26.10
2019-01-19T05:36:38.748Z,27.07
2019-01-19T05:39:08.469Z,23.20
2019-01-19T05:41:37.334Z,23.57
2019-01-19T05:44:06.147Z,28.37
2019-01-19T05:46:35.176Z,27.77
2019-01-19T05:49:04.005Z,23.60
2019-01-19T05:51:32.823Z,27.23
2019-01-19T05:54:01.698Z,23.90
2019-01-19T05:56:30.456Z,24.90
2019-01-19T05:58:59.511Z,22.63
2019-01-19T06:01:28.946Z,22.73
2019-01-19T06:03:57.715Z,21.53
2019-01-19T06:06:26.636Z,28.10
2019-01-19T06:08:55.403Z,25.70
2019-01-19T06:11:24.246Z,24.47
2019-01-19T06:13:53.630Z,26.37
2019-01-19T06:16:22.486Z,36.00
2019-01-19T06:18:51.902Z,37.87
2019-01-19T06:21:24.224Z,38.50
2019-01-19T06:23:52.996Z,41.30
2019-01-19T06:26:21.788Z,38.10
2019-01-19T06:28:50.578Z,43.03
2019-01-19T06:31:19.374Z,41.73
2019-01-19T06:33:48.439Z,46.00
2019-01-19T06:36:17.268Z,43.40
2019-01-19T06:38:46.030Z,41.83
2019-01-19T06:41:15.055Z,38.53
2019-01-19T06:43:43.806Z,36.97
2019-01-19T06:46:12.676Z,37.40
2019-01-19T06:48:41.699Z,40.00
2019-01-19T06:51:10.638Z,40.90
2019-01-19T06:53:39.400Z,40.88
2019-01-19T06:56:08.190Z,40.90
2019-01-19T06:58:36.958Z,41.00
2019-01-19T07:01:05.977Z,38.13
2019-01-19T07:03:35.334Z,39.73
2019-01-19T07:06:04.320Z,38.97
2019-01-19T07:08:33.426Z,38.47
2019-01-19T07:11:02.195Z,42.60
2019-01-19T07:13:30.968Z,32.93
2019-01-19T07:15:59.747Z,35.73
2019-01-19T07:18:28.608Z,39.20
2019-01-19T07:20:57.365Z,35.87
2019-01-19T07:23:26.215Z,40.33
2019-01-19T07:25:55.355Z,36.10
2019-01-19T07:28:24.134Z,33.93
2019-01-19T07:30:53.476Z,37.93
2019-01-19T07:33:22.679Z,33.20
2019-01-19T07:35:51.561Z,33.67
2019-01-19T07:38:20.492Z,33.93
2019-01-19T07:40:49.430Z,36.17
2019-01-19T07:43:18.703Z,30.10
2019-01-19T07:45:47.755Z,34.50
2019-01-19T07:48:16.873Z,33.70
2019-01-19T07:50:45.763Z,31.00
2019-01-19T07:53:14.821Z,34.23
2019-01-19T07:55:43.606Z,34.97
2019-01-19T07:58:12.512Z,34.40
2019-01-19T08:00:41.293Z,36.30
2019-01-19T08:03:10.283Z,29.97
2019-01-19T08:05:39.280Z,30.97
2019-01-19T08:08:08.031Z,36.87
2019-01-19T08:10:36.888Z,39.63
2019-01-19T08:13:05.744Z,32.80
2019-01-19T08:15:35.046Z,31.17
2019-01-19T08:18:03.879Z,34.23
2019-01-19T08:20:32.667Z,29.43
2019-01-19T08:23:01.466Z,29.13
2019-01-19T08:25:30.405Z,31.27
2019-01-19T08:27:59.420Z,30.83
2019-01-19T08:30:29.748Z,28.20
2019-01-19T08:32:58.593Z,28.80
2019-01-19T08:35:27.673Z,30.13
2019-01-19T08:37:56.455Z,29.67
2019-01-19T08:40:27.732Z,25.57
2019-01-19T08:43:19.855Z,29.73
2019-01-19T08:45:49.329Z,34.50
2019-01-19T08:48:18.539Z,28.53
2019-01-19T08:50:47.651Z,25.87
2019-01-19T08:53:16.564Z,31.37
2019-01-19T08:55:45.472Z,25.60
2019-01-19T08:58:14.237Z,25.97
2019-01-19T09:00:43.397Z,29.27
2019-01-19T09:03:12.316Z,29.50
2019-01-19T09:05:41.131Z,23.63
2019-01-19T09:08:09.998Z,26.10
2019-01-19T09:10:39.123Z,25.57
2019-01-19T09:13:08.076Z,22.30
2019-01-19T09:15:36.974Z,25.07
2019-01-19T09:18:05.794Z,31.77
2019-01-19T09:20:34.689Z,29.17
2019-01-19T09:23:17.878Z,26.00
2019-01-19T09:25:46.632Z,32.73
2019-01-19T09:28:15.515Z,29.87
2019-01-19T09:30:44.279Z,30.93
2019-01-19T09:33:14.136Z,27.37
2019-01-19T09:35:43.041Z,36.70
2019-01-19T09:38:12.118Z,27.87
2019-01-19T09:40:40.973Z,24.80
2019-01-19T09:43:09.884Z,26.07
2019-01-19T09:45:38.736Z,29.37
2019-01-19T09:48:07.780Z,39.07
2019-01-19T09:50:36.616Z,35.60
2019-01-19T09:53:05.688Z,30.17
2019-01-19T09:55:34.613Z,37.43
2019-01-19T09:58:03.503Z,32.73
2019-01-19T10:00:36.678Z,38.90
2019-01-19T10:03:03.296Z,48.57
2019-01-19T10:05:32.203Z,36.60
2019-01-19T10:08:01.086Z,37.37
2019-01-19T10:10:29.994Z,33.33
2019-01-19T10:12:58.801Z,35.40
2019-01-19T10:15:27.712Z,37.23
2019-01-19T10:17:56.639Z,40.67
2019-01-19T10:20:27.346Z,56.33
2019-01-19T10:22:56.496Z,63.10
2019-01-19T10:25:25.866Z,61.37
2019-01-19T10:27:55.043Z,48.77
2019-01-19T10:30:25.875Z,53.90
2019-01-19T10:32:54.854Z,49.63
2019-01-19T10:35:24.956Z,45.07
2019-01-19T10:37:56.722Z,53.90
2019-01-19T10:40:24.727Z,52.40
2019-01-19T10:42:53.546Z,53.10
2019-01-19T10:45:23.756Z,58.10
2019-01-19T10:47:52.605Z,70.97
2019-01-19T10:50:21.852Z,45.83
2019-01-19T10:52:50.994Z,48.87
2019-01-19T10:55:20.762Z,42.97
2019-01-19T10:57:49.950Z,37.70
2019-01-19T11:00:24.415Z,34.27
2019-01-19T11:02:53.786Z,34.10
2019-01-19T11:05:23.071Z,39.60
2019-01-19T11:07:51.999Z,28.93
2019-01-19T11:10:22.938Z,23.03
2019-01-19T11:12:52.049Z,34.23
2019-01-19T11:15:20.917Z,31.87
2019-01-19T11:17:49.854Z,30.40
2019-01-19T11:20:20.886Z,29.47
2019-01-19T11:22:49.959Z,25.30
2019-01-19T11:25:19.157Z,25.33
2019-01-19T11:27:48.052Z,27.70
2019-01-19T11:30:27.838Z,28.43
2019-01-19T11:32:56.685Z,25.50
2019-01-19T11:35:25.538Z,12.07
2019-01-19T11:37:54.676Z,11.13
2019-01-19T11:40:29.160Z,12.63
2019-01-19T11:42:57.976Z,11.93
2019-01-19T11:45:26.773Z,16.30
2019-01-19T11:47:55.605Z,16.10
2019-01-19T11:50:25.329Z,15.77
2019-01-19T11:52:54.269Z,10.00
2019-01-19T11:55:23.085Z,10.20
2019-01-19T11:57:54.376Z,10.27
2019-01-19T12:00:25.362Z,13.07
2019-01-19T12:02:54.776Z,12.53
2019-01-19T12:05:23.990Z,15.33
2019-01-19T12:07:52.831Z,13.57
2019-01-19T12:10:23.883Z,15.87
2019-01-19T12:12:52.827Z,10.57
2019-01-19T12:15:22.007Z,7.30
2019-01-19T12:17:50.857Z,10.37
2019-01-19T12:20:22.386Z,11.67
2019-01-19T12:22:51.510Z,9.37
2019-01-19T12:25:21.373Z,10.27
2019-01-19T12:27:50.263Z,7.40
2019-01-19T12:30:21.323Z,11.57
2019-01-19T12:32:50.828Z,7.83
2019-01-19T12:35:19.866Z,9.77
2019-01-19T12:37:48.824Z,8.93
2019-01-19T12:40:19.746Z,9.50
2019-01-19T12:42:49.978Z,9.53
2019-01-19T12:45:22.480Z,9.40
2019-01-19T12:47:51.329Z,13.10
2019-01-19T12:50:22.303Z,10.70
2019-01-19T12:52:51.089Z,8.17
2019-01-19T12:55:20.084Z,10.07
2019-01-19T12:57:48.971Z,9.47
2019-01-19T13:00:20.003Z,6.63
2019-01-19T13:02:49.130Z,10.63
2019-01-19T13:05:21.415Z,9.70
2019-01-19T13:07:50.415Z,15.67
2019-01-19T13:10:26.212Z,10.20
2019-01-19T13:13:05.574Z,14.17
2019-01-19T13:16:14.213Z,7.20
2019-01-19T13:19:17.074Z,11.07
2019-01-19T13:22:23.101Z,7.10
2019-01-19T13:25:14.632Z,9.53
2019-01-19T13:28:39.684Z,10.40
2019-01-19T13:31:35.418Z,8.03
2019-01-19T13:34:59.242Z,10.50
2019-01-19T13:38:03.969Z,12.23
2019-01-19T13:41:15.934Z,11.80
2019-01-19T13:44:10.279Z,11.10
2019-01-19T13:47:06.659Z,7.17
2019-01-19T13:50:12.610Z,10.83
2019-01-19T13:53:28.037Z,11.07
2019-01-19T13:56:22.178Z,6.97
2019-01-19T13:59:06.617Z,13.87
2019-01-19T14:02:16.934Z,5.27
2019-01-19T14:05:09.104Z,6.77
2019-01-19T14:08:15.451Z,6.20
2019-01-19T14:10:58.370Z,5.33
2019-01-19T14:14:14.790Z,6.93
2019-01-19T14:17:23.646Z,6.40
2019-01-19T14:20:18.434Z,6.03
2019-01-19T14:23:09.587Z,8.43
2019-01-19T14:26:05.699Z,7.07
2019-01-19T14:29:07.902Z,5.23
2019-01-19T14:31:58.934Z,11.43
2019-01-19T14:35:08.614Z,9.90
2019-01-19T14:38:11.306Z,8.90
2019-01-19T14:41:08.289Z,7.77
2019-01-19T14:44:08.235Z,6.90
2019-01-19T14:46:59.441Z,8.13
2019-01-19T14:49:56.834Z,12.40
2019-01-19T14:52:42.019Z,5.70
2019-01-19T14:55:42.778Z,12.77
2019-01-19T14:58:39.536Z,11.27
2019-01-19T15:01:53.291Z,6.57
2019-01-19T15:05:06.039Z,13.60
2019-01-19T15:07:55.098Z,11.53
2019-01-19T15:11:00.493Z,10.73
2019-01-19T15:14:02.842Z,9.77
2019-01-19T15:17:01.630Z,13.83
2019-01-19T15:19:56.997Z,9.87
2019-01-19T15:23:11.494Z,12.87
2019-01-19T15:26:27.185Z,11.73
2019-01-19T15:29:24.555Z,8.43
2019-01-19T15:32:42.544Z,9.23
2019-01-19T15:36:02.722Z,13.73
2019-01-19T15:39:11.042Z,8.90
2019-01-19T15:42:19.368Z,10.57
2019-01-19T15:45:07.089Z,7.97
2019-01-19T15:48:00.691Z,10.60
2019-01-19T15:51:10.051Z,10.03
2019-01-19T15:54:12.769Z,8.43
2019-01-19T15:56:59.244Z,16.37
2019-01-19T15:59:58.363Z,10.73
2019-01-19T16:03:26.932Z,8.10
2019-01-19T16:06:36.023Z,8.10
2019-01-19T16:09:49.699Z,7.60
2019-01-19T16:12:56.180Z,12.27
2019-01-19T16:15:56.253Z,4.97
2019-01-19T16:18:59.998Z,11.20
2019-01-19T16:21:44.227Z,7.97
2019-01-19T16:24:34.764Z,6.67
2019-01-19T16:27:42.255Z,9.60
2019-01-19T16:30:51.899Z,8.90
2019-01-19T16:33:37.151Z,9.63
2019-01-19T16:37:11.080Z,8.07
2019-01-19T16:40:25.540Z,12.80
2019-01-19T16:43:21.912Z,12.37
2019-01-19T16:46:23.844Z,12.53
2019-01-19T16:49:29.824Z,16.33
2019-01-19T16:52:47.938Z,11.93
2019-01-19T16:55:44.217Z,13.87
2019-01-19T16:58:39.382Z,12.83
2019-01-19T17:01:31.090Z,28.70
2019-01-19T17:04:40.422Z,15.23
2019-01-19T17:08:02.645Z,17.03
2019-01-19T17:11:07.660Z,19.37
2019-01-19T17:14:21.460Z,15.63
2019-01-19T17:17:31.409Z,18.30
2019-01-19T17:20:39.668Z,20.90
2019-01-19T17:23:55.942Z,13.80
2019-01-19T17:26:51.129Z,16.00
2019-01-19T17:29:44.145Z,18.53
2019-01-19T17:32:49.367Z,15.63
2019-01-19T17:35:47.654Z,22.13
2019-01-19T17:38:26.661Z,14.43
2019-01-19T17:41:47.545Z,17.60
2019-01-19T17:44:31.511Z,12.53
2019-01-19T17:47:18.349Z,12.73
2019-01-19T17:50:00.052Z,15.77
2019-01-19T17:53:03.146Z,14.20
2019-01-19T17:56:37.695Z,24.30
2019-01-19T17:59:43.274Z,16.80
2019-01-19T18:02:58.046Z,18.77
2019-01-19T18:06:08.557Z,12.93
2019-01-19T18:09:15.274Z,15.40
2019-01-19T18:12:34.773Z,16.30
2019-01-19T18:15:43.145Z,15.97
2019-01-19T18:18:38.120Z,14.60
2019-01-19T18:21:33.190Z,20.00
2019-01-19T18:24:36.576Z,17.97
2019-01-19T18:27:49.754Z,19.40
2019-01-19T18:31:04.193Z,22.70
2019-01-19T18:33:57.867Z,31.53
2019-01-19T18:37:06.324Z,22.10
2019-01-19T18:40:11.978Z,27.27
2019-01-19T18:43:21.890Z,28.10
2019-01-19T18:46:06.593Z,33.37
2019-01-19T18:49:06.244Z,28.37
2019-01-19T18:52:24.078Z,40.97
2019-01-19T18:55:35.786Z,31.67
2019-01-19T18:58:32.214Z,34.03
2019-01-19T19:01:26.396Z,39.97
2019-01-19T19:04:18.877Z,36.63
2019-01-19T19:07:24.514Z,48.37
2019-01-19T19:10:25.079Z,39.13
2019-01-19T19:13:13.572Z,35.93
2019-01-19T19:16:25.089Z,43.53
2019-01-19T19:19:22.805Z,49.67
2019-01-19T19:22:31.878Z,42.80
2019-01-19T19:25:25.909Z,45.20
2019-01-19T19:28:31.732Z,42.27
2019-01-19T19:31:30.138Z,39.03
2019-01-19T19:34:05.754Z,39.90
2019-01-19T19:37:00.200Z,42.67
2019-01-19T19:40:10.006Z,42.20
2019-01-19T19:43:22.326Z,35.23
2019-01-19T19:46:29.983Z,35.00
2019-01-19T19:49:48.630Z,44.23
2019-01-19T19:52:17.418Z,37.13
2019-01-19T19:54:51.405Z,41.97
2019-01-19T19:57:20.729Z,40.43
2019-01-19T19:59:49.925Z,34.03
2019-01-19T20:02:18.778Z,37.83
2019-01-19T20:04:48.018Z,41.50
2019-01-19T20:07:17.062Z,38.93
2019-01-19T20:09:46.199Z,38.67
2019-01-19T20:12:15.369Z,35.10
2019-01-19T20:14:44.451Z,36.43
2019-01-19T20:17:13.221Z,38.10
2019-01-19T20:19:42.105Z,38.33
2019-01-19T20:22:10.931Z,39.50
2019-01-19T20:24:40.026Z,37.47
2019-01-19T20:27:08.776Z,30.97
2019-01-19T20:29:37.860Z,38.53
2019-01-19T20:32:06.828Z,34.90
2019-01-19T20:34:35.857Z,38.13
2019-01-19T20:37:04.800Z,43.87
2019-01-19T20:39:33.555Z,37.10
2019-01-19T20:42:02.405Z,38.57
2019-01-19T20:44:31.178Z,44.23
2019-01-19T20:47:00.019Z,40.67
2019-01-19T20:49:28.868Z,47.70
2019-01-19T20:51:57.988Z,43.30
2019-01-19T20:54:26.759Z,38.50
2019-01-19T20:56:55.779Z,46.60
2019-01-19T20:59:24.626Z,41.67
2019-01-19T21:01:53.962Z,40.27
2019-01-19T21:04:22.750Z,37.77
2019-01-19T21:06:51.607Z,40.03
2019-01-19T21:09:20.405Z,35.03
2019-01-19T21:11:49.177Z,43.13
2019-01-19T21:14:18.239Z,48.90
2019-01-19T21:16:47.115Z,38.43
2019-01-19T21:19:15.868Z,45.17
2019-01-19T21:21:44.662Z,39.40
2019-01-19T21:24:13.527Z,39.43
2019-01-19T21:26:42.287Z,47.80
2019-01-19T21:29:11.391Z,34.87
2019-01-19T21:31:40.555Z,40.90
2019-01-19T21:34:09.563Z,35.93
2019-01-19T21:36:38.633Z,47.33
2019-01-19T21:39:08.795Z,35.70
2019-01-19T21:41:37.645Z,36.80
2019-01-19T21:44:07.638Z,33.07
2019-01-19T21:46:36.934Z,33.40
2019-01-19T21:49:06.002Z,36.10
2019-01-19T21:51:36.943Z,36.07
2019-01-19T21:54:05.881Z,38.17
2019-01-19T21:56:34.655Z,39.23
2019-01-19T21:59:03.894Z,34.03
2019-01-19T22:01:32.702Z,33.07
2019-01-19T22:04:01.494Z,37.03
2019-01-19T22:06:32.049Z,36.53
2019-01-19T22:09:00.863Z,33.33
2019-01-19T22:11:29.719Z,40.83
2019-01-19T22:14:01.158Z,39.47
2019-01-19T22:16:29.990Z,33.80
2019-01-19T22:18:59.281Z,34.60
2019-01-19T22:21:28.135Z,34.27
2019-01-19T22:23:56.966Z,43.53
2019-01-19T22:26:26.054Z,30.87
2019-01-19T22:28:55.128Z,37.43
2019-01-19T22:31:24.283Z,36.30
2019-01-19T22:33:54.526Z,32.70
2019-01-19T22:36:23.353Z,39.30
2019-01-19T22:38:52.145Z,37.40
2019-01-19T22:41:21.026Z,34.67
2019-01-19T22:43:50.044Z,30.80
2019-01-19T22:46:20.367Z,31.80
2019-01-19T22:48:49.289Z,33.50
2019-01-19T22:51:18.361Z,35.27
2019-01-19T22:53:47.174Z,34.60
2019-01-19T22:56:16.018Z,35.80
2019-01-19T22:58:44.849Z,35.00
2019-01-19T23:01:44.337Z,38.93
2019-01-19T23:04:14.102Z,28.37
2019-01-19T23:06:43.986Z,29.17
2019-01-19T23:09:13.030Z,37.47
2019-01-19T23:11:41.993Z,33.13
2019-01-19T23:14:14.312Z,29.77
2019-01-19T23:16:43.142Z,39.53
2019-01-19T23:19:11.922Z,29.97
2019-01-19T23:21:40.752Z,30.80
2019-01-19T23:24:09.958Z,32.53
2019-01-19T23:26:40.411Z,39.70
2019-01-19T23:29:09.292Z,30.80
2019-01-19T23:31:38.389Z,34.10
2019-01-19T23:34:07.643Z,33.80
2019-01-19T23:36:36.937Z,36.03
2019-01-19T23:39:08.818Z,35.07
2019-01-19T23:41:39.587Z,35.90
2019-01-19T23:44:08.337Z,33.37
2019-01-19T23:46:37.574Z,41.00
2019-01-19T23:49:08.860Z,36.67
2019-01-19T23:51:38.622Z,31.00
2019-01-19T23:54:07.459Z,32.20
2019-01-19T23:56:36.244Z,32.83
2019-01-19T23:59:05.653Z,35.03
